Latest Weather Observations for West Wyalong

IDN60801

Issued at 5:02 pm EST Sunday 25 June 2017 (issued every 30 minutes, with the page automatically refreshed every 10 minutes)

About weather observations | Map of weather stations | Latest weather observations for NSW | Other Formats
Station Details ID: 050017 Name: WEST WYALONG AIRPORT AWS Lat: -33.94 Lon: 147.20 Height: 257.0 m
Data from the previous 72 hours. | See also: Recent months at West Wyalong
Date/Time
EST
Temp
°C
App
Temp
°C
Dew
Point
°C
Rel
Hum
%
Delta-T
°C
Wind Press
QNH
hPa
Press
MSL
hPa
Rain since
9am
mm
Dir  Spd
km/h
Gust
km/h
Spd
kts
Gust
kts
25/05:00pm 11.3 10.3 5.4 67 2.7 CALM 0 0 0 0 1018.6 1018.9 0.0
25/04:30pm 11.9 10.1 5.3 64 3.1 NNW 4 7 2 4 1018.5 1018.8 0.0
25/04:00pm 12.5 10.7 5.2 61 3.4 NW 4 9 2 5 1018.4 1018.7 0.0
25/03:30pm 12.5 9.8 5.4 62 3.3 NNW 9 13 5 7 1018.2 1018.5 0.0
25/03:00pm 12.7 9.5 4.9 59 3.6 NNW 11 15 6 8 1018.3 1018.6 0.0
25/02:30pm 13.1 10.2 4.8 57 3.9 NNW 9 15 5 8 1018.1 1018.4 0.0
25/02:00pm 12.8 9.9 4.8 58 3.7 N 9 15 5 8 1018.3 1018.6 0.0
25/01:30pm 12.5 9.0 3.7 55 4.0 N 11 19 6 10 1018.6 1018.9 0.0
25/01:00pm 13.8 10.2 4.9 55 4.2 N 13 17 7 9 1018.9 1019.2 0.0
25/12:30pm 12.7 8.7 4.9 59 3.6 N 15 17 8 9 1019.2 1019.5 0.0
25/12:00pm 12.2 8.4 3.9 57 3.8 N 13 17 7 9 1019.7 1020.0 0.0
25/11:30am 11.5 8.2 4.3 61 3.3 N 11 15 6 8 1020.0 1020.3 0.0
25/11:00am 10.1 7.7 5.1 71 2.3 N 7 11 4 6 1020.4 1020.7 0.0
25/10:30am 8.9 5.6 4.3 73 2.1 N 11 13 6 7 1020.5 1020.8 0.0
25/10:00am 8.4 5.0 4.0 74 1.9 N 11 13 6 7 1020.6 1021.0 0.0
25/09:30am 7.2 4.3 4.5 83 1.2 NNE 9 13 5 7 1020.6 1021.0 0.0
25/09:00am 5.7 4.4 4.2 90 0.6 CALM 0 0 0 0 1020.5 1020.8 0.0
25/08:30am 3.3 1.7 2.6 95 0.3 CALM 0 0 0 0 1020.2 1020.5 0.0
25/08:00am 1.4 -0.4 1.0 97 0.2 CALM 0 0 0 0 1020.1 1020.4 0.0
25/07:30am 0.0 -2.1 -0.7 95 0.3 CALM 0 0 0 0 1020.0 1020.3 0.0
25/07:00am 0.0 -2.5 -0.7 95 0.3 SW 2 7 1 4 1019.7 1020.0 0.0
25/06:30am -0.2 -2.3 -0.9 95 0.2 CALM 0 0 0 0 1019.5 1019.8 0.0
25/06:00am 0.1 -2.0 -0.6 95 0.3 CALM 0 4 0 2 1019.4 1019.7 0.0
25/05:30am 0.5 -2.3 -0.1 96 0.2 W 4 6 2 3 1019.3 1019.6 0.0
25/05:00am 0.0 -3.2 -0.7 95 0.3 WSW 6 7 3 4 1019.2 1019.5 0.0
25/04:30am 0.1 -2.0 -0.6 95 0.3 CALM 0 0 0 0 1019.1 1019.4 0.0
25/04:00am 0.2 -2.6 -0.6 94 0.3 NNW 4 7 2 4 1019.2 1019.5 0.0
25/03:30am 1.0 -2.3 0.3 95 0.3 WSW 7 9 4 5 1019.3 1019.6 0.0
25/03:00am 0.8 -2.3 -0.1 94 0.3 WSW 6 7 3 4 1019.5 1019.8 0.0
25/02:30am 1.1 -2.0 -0.1 92 0.4 WNW 6 7 3 4 1019.5 1019.8 0.0
25/02:00am 2.1 0.3 1.1 93 0.4 CALM 0 0 0 0 1019.5 1019.8 0.0
25/01:30am 2.1 0.2 0.8 91 0.5 CALM 0 0 0 0 1019.5 1019.8 0.0
25/01:00am 2.9 -0.3 0.8 86 0.8 WSW 7 9 4 5 1019.6 1019.9 0.0
25/12:30am 4.6 1.0 2.8 88 0.7 W 11 11 6 6 1019.5 1019.8 0.0
25/12:00am 5.0 1.4 3.0 87 0.8 W 11 13 6 7 1019.7 1020.0 0.0
 
Date/Time
EST
Temp
°C
App
Temp
°C
Dew
Point
°C
Rel
Hum
%
Delta-T
°C
Wind Press
QNH
hPa
Press
MSL
hPa
Rain since
9am
mm
Dir  Spd
km/h
Gust
km/h
Spd
kts
Gust
kts
24/11:30pm 4.9 1.6 2.6 85 0.9 WSW 9 11 5 6 1019.7 1020.0 0.0
24/11:00pm 5.0 1.7 2.5 84 1.0 SW 9 13 5 7 1019.6 1019.9 0.0
24/10:30pm 4.3 1.0 2.3 87 0.8 WSW 9 11 5 6 1019.4 1019.7 0.0
24/10:00pm 3.5 0.1 1.9 89 0.6 SSW 9 9 5 5 1019.3 1019.6 0.0
24/09:30pm 3.7 0.7 1.9 88 0.7 W 7 7 4 4 1019.3 1019.6 0.0
24/09:00pm 3.9 1.0 1.6 85 0.9 W 6 7 3 4 1019.4 1019.7 0.0
24/08:30pm 4.4 1.4 2.1 85 0.9 WNW 7 7 4 4 1019.2 1019.5 0.0
24/08:00pm 4.8 2.0 1.8 81 1.2 WNW 6 7 3 4 1019.2 1019.5 0.0
24/07:30pm 5.6 2.6 1.9 77 1.5 W 7 7 4 4 1019.1 1019.4 0.0
24/07:00pm 7.9 4.7 3.0 71 2.1 W 9 9 5 5 1018.9 1019.2 0.0
24/06:30pm 8.8 5.6 3.2 68 2.4 WSW 9 11 5 6 1018.6 1018.9 0.0
24/06:00pm 10.0 6.1 3.5 64 2.9 W 13 13 7 7 1018.4 1018.7 0.0
24/05:30pm 11.4 7.6 3.7 59 3.5 WSW 13 15 7 8 1018.3 1018.6 0.0
24/05:00pm 13.2 9.0 3.8 53 4.3 WSW 15 19 8 10 1018.1 1018.4 0.0
24/04:30pm 14.6 9.8 4.6 51 4.7 SW 19 24 10 13 1018.0 1018.3 0.0
24/04:00pm 15.4 11.0 5.0 50 5.0 WSW 17 26 9 14 1017.9 1018.2 0.0
24/03:30pm 15.7 11.3 5.0 49 5.1 WSW 17 24 9 13 1017.7 1018.0 0.0
24/03:00pm 16.2 11.9 5.2 48 5.3 WSW 17 24 9 13 1017.8 1018.1 0.0
24/02:30pm 15.9 11.0 5.2 49 5.2 WSW 20 30 11 16 1017.9 1018.2 0.0
24/02:00pm 15.7 10.4 5.0 49 5.1 WSW 22 33 12 18 1017.9 1018.2 0.0
24/01:30pm 15.7 10.1 5.3 50 5.0 WSW 24 32 13 17 1018.1 1018.4 0.0
24/01:00pm 15.6 10.2 4.3 47 5.3 SW 22 30 12 16 1018.2 1018.5 0.0
24/12:30pm 15.4 10.7 5.0 50 5.0 SW 19 26 10 14 1018.6 1018.9 0.0
24/12:00pm 15.6 10.7 4.9 49 5.1 WSW 20 28 11 15 1018.6 1018.9 0.0
24/11:30am 15.1 10.6 6.1 55 4.4 SW 19 28 10 15 1018.9 1019.2 0.0
24/11:00am 14.9 11.0 7.2 60 3.8 WSW 17 22 9 12 1019.3 1019.6 0.0
24/10:30am 13.5 10.6 6.6 63 3.4 SW 11 15 6 8 1019.5 1019.8 0.0
24/10:00am 12.2 9.1 5.4 63 3.2 SW 11 15 6 8 1019.6 1019.9 0.0
24/09:30am 11.2 7.6 4.9 65 2.9 SW 13 17 7 9 1019.4 1019.7 0.0
24/09:00am 10.2 6.5 4.4 67 2.6 WSW 13 17 7 9 1019.3 1019.6 0.0
24/08:30am 7.9 4.9 3.9 76 1.8 W 9 11 5 6 1019.2 1019.5 0.0
24/08:00am 6.5 3.3 3.1 79 1.4 W 9 13 5 7 1018.8 1019.1 0.0
24/07:30am 4.9 1.6 2.3 83 1.1 W 9 11 5 6 1018.6 1018.9 0.0
24/07:00am 5.9 2.6 2.5 79 1.4 NW 9 13 5 7 1018.1 1018.4 0.0
24/06:30am 5.7 2.0 2.5 80 1.3 WNW 11 13 6 7 1017.7 1018.0 0.0
24/06:00am 4.5 0.8 2.4 86 0.9 NW 11 13 6 7 1017.3 1017.5 0.0
24/05:30am 3.3 0.4 1.7 89 0.6 WNW 6 7 3 4 1016.8 1017.1 0.0
24/05:00am 4.3 1.5 2.0 85 0.9 NNW 6 7 3 4 1016.6 1016.9 0.0
24/04:30am 6.0 3.2 3.0 81 1.3 NNW 7 9 4 5 1016.5 1016.8 0.0
24/04:00am 6.0 4.4 2.6 79 1.4 CALM 0 0 0 0 1016.8 1017.1 0.0
24/03:30am 6.8 5.3 2.9 76 1.7 CALM 0 0 0 0 1016.7 1017.0 0.0
24/03:00am 8.4 5.7 3.5 71 2.1 NW 7 9 4 5 1016.9 1017.2 0.0
24/02:30am 7.8 5.3 3.5 74 1.9 W 6 7 3 4 1017.3 1017.5 0.0
24/02:00am 9.0 6.4 3.4 68 2.4 WNW 6 7 3 4 1016.9 1017.2 0.0
24/01:30am 8.6 6.5 4.0 73 2.0 NW 4 11 2 6 1017.3 1017.5 0.0
24/01:00am 7.1 5.3 3.7 79 1.5 WNW 2 7 1 4 1017.4 1017.7 0.0
24/12:30am 7.0 4.3 3.6 79 1.5 W 7 9 4 5 1017.5 1017.8 0.0
24/12:00am 7.2 4.6 3.4 77 1.6 NW 6 7 3 4 1017.5 1017.8 0.0
 
Date/Time
EST
Temp
°C
App
Temp
°C
Dew
Point
°C
Rel
Hum
%
Delta-T
°C
Wind Press
QNH
hPa
Press
MSL
hPa
Rain since
9am
mm
Dir  Spd
km/h
Gust
km/h
Spd
kts
Gust
kts
23/11:30pm 6.9 4.4 3.7 80 1.4 NW 6 7 3 4 1017.7 1018.0 0.0
23/11:00pm 6.8 3.8 3.9 82 1.3 W 9 9 5 5 1018.0 1018.3 0.0
23/10:30pm 5.8 3.0 3.0 82 1.2 NW 7 9 4 5 1018.0 1018.3 0.0
23/10:00pm 5.3 3.0 2.7 83 1.1 W 4 7 2 4 1018.2 1018.5 0.0
23/09:30pm 4.6 2.9 2.0 83 1.1 CALM 0 0 0 0 1018.1 1018.4 0.0
23/09:00pm 4.9 2.5 2.1 82 1.1 WNW 4 7 2 4 1018.5 1018.8 0.0
23/08:30pm 5.2 2.4 2.2 81 1.2 WNW 6 7 3 4 1018.6 1018.9 0.0
23/08:00pm 5.9 2.9 2.2 77 1.5 WNW 7 9 4 5 1018.6 1018.9 0.0
23/07:30pm 6.9 3.9 1.8 70 2.1 NW 7 9 4 5 1018.0 1018.3 0.0
23/07:00pm 8.7 7.1 2.5 65 2.6 CALM 0 0 0 0 1018.0 1018.3 0.0
23/06:30pm 10.7 7.9 2.3 56 3.6 WNW 6 7 3 4 1017.9 1018.2 0.0
23/06:00pm 12.0 8.7 2.7 53 4.1 WNW 9 11 5 6 1017.9 1018.2 0.0
23/05:30pm 12.8 8.8 2.6 50 4.5 WNW 13 17 7 9 1018.0 1018.3 0.0
23/05:00pm 13.7 9.7 2.6 47 5.0 WNW 13 17 7 9 1017.7 1018.0 0.0
23/04:30pm 14.1 10.1 2.7 46 5.1 W 13 17 7 9 1017.4 1017.7 0.0
23/04:00pm 14.9 9.6 1.8 41 5.8 W 19 24 10 13 1017.5 1017.8 0.0
23/03:30pm 16.0 9.5 0.2 34 6.9 W 24 32 13 17 1017.5 1017.8 0.0
23/03:00pm 16.6 11.7 2.2 38 6.5 W 17 24 9 13 1017.4 1017.7 0.0
23/02:30pm 16.9 11.3 1.4 35 7.0 W 20 32 11 17 1017.5 1017.8 0.0
23/02:00pm 16.7 11.0 0.8 34 7.0 WNW 20 28 11 15 1017.5 1017.8 0.0
23/01:30pm 16.2 12.3 5.5 49 5.2 NW 15 24 8 13 1017.9 1018.2 0.0
23/01:00pm 15.5 12.0 7.3 58 4.1 NW 15 20 8 11 1018.6 1018.9 0.0
23/12:30pm 14.4 10.4 6.7 60 3.8 NNW 17 24 9 13 1018.9 1019.2 0.0
23/12:00pm 14.0 9.6 6.4 60 3.7 NNW 19 26 10 14 1019.2 1019.5 0.0
23/11:30am 13.5 9.4 6.4 62 3.4 NNW 17 24 9 13 1019.9 1020.2 0.0
23/11:00am 11.1 8.2 6.6 74 2.1 N 11 13 6 7 1020.6 1021.0 0.0
23/10:30am 8.6 5.5 5.5 81 1.4 N 11 15 6 8 1021.0 1021.4 0.0
23/10:00am 8.4 6.1 5.7 83 1.2 NNE 7 9 4 5 1021.5 1021.8 0.0
23/09:30am 7.7 6.3 5.3 85 1.1 ENE 2 7 1 4 1021.8 1022.1 0.0
23/09:00am 6.6 4.4 5.1 90 0.7 NE 6 7 3 4 1021.3 1021.6 0.0
23/08:30am 5.3 4.2 5.0 98 0.1 CALM 0 7 0 4 1021.4 1021.7 0.0
23/08:00am 2.3 0.6 1.9 97 0.2 CALM 0 0 0 0 1021.6 1021.9 0.0
23/07:30am 2.2 0.5 1.8 97 0.2 CALM 0 0 0 0 1021.7 1022.0 0.0
23/07:00am 2.3 0.6 1.7 96 0.2 CALM 0 0 0 0 1021.5 1021.8 0.0
23/06:30am 3.1 1.5 2.7 97 0.2 CALM 0 0 0 0 1021.3 1021.6 0.0
23/06:00am 2.7 1.0 2.1 96 0.2 CALM 0 0 0 0 1021.3 1021.6 0.0
23/05:30am 3.2 1.7 2.8 97 0.2 CALM 0 0 0 0 1020.7 1021.1 0.0
23/05:00am 3.7 2.3 3.4 98 0.1 CALM 0 0 0 0 1021.0 1021.4 0.0
23/04:30am 2.6 1.0 2.2 97 0.2 CALM 0 0 0 0 1021.4 1021.7 0.0
23/04:00am 2.3 0.6 1.7 96 0.2 CALM 0 0 0 0 1021.7 1022.0 0.0
23/03:30am 2.4 0.7 1.7 95 0.3 CALM 0 0 0 0 1021.8 1022.1 0.0
23/03:00am 2.5 0.8 1.9 96 0.2 CALM 0 0 0 0 1022.0 1022.3 0.0
23/02:30am 1.9 0.1 1.3 96 0.2 CALM 0 0 0 0 1022.0 1022.3 0.0
23/02:00am 1.4 -0.5 0.8 96 0.2 CALM 0 0 0 0 1022.6 1022.9 0.0
23/01:30am 1.0 -0.9 0.4 96 0.2 CALM 0 0 0 0 1022.7 1023.0 0.0
23/01:00am 0.8 -1.2 0.1 95 0.3 CALM 0 0 0 0 1022.6 1022.9 0.0
23/12:30am 0.9 -1.1 0.2 95 0.3 CALM 0 0 0 0 1023.1 1023.4 0.0
23/12:00am 1.0 -1.0 0.1 94 0.3 CALM 0 0 0 0 1023.3 1023.6 0.0
 
Date/Time
EST
Temp
°C
App
Temp
°C
Dew
Point
°C
Rel
Hum
%
Delta-T
°C
Wind Press
QNH
hPa
Press
MSL
hPa
Rain since
9am
mm
Dir  Spd
km/h
Gust
km/h
Spd
kts
Gust
kts
22/11:30pm 1.1 -0.9 0.1 93 0.4 CALM 0 0 0 0 1023.9 1024.3 0.0
22/11:00pm 1.9 0.1 1.0 94 0.3 CALM 0 0 0 0 1024.2 1024.6 0.0
22/10:30pm 2.2 0.4 1.3 94 0.3 CALM 0 0 0 0 1023.9 1024.3 0.0
22/10:00pm 2.5 0.8 1.8 95 0.3 CALM 0 0 0 0 1024.3 1024.7 0.0
22/09:30pm 2.4 -0.5 1.4 93 0.4 WSW 6 7 3 4 1024.4 1024.8 0.0
22/09:00pm 2.9 -0.1 1.9 93 0.4 WSW 7 9 4 5 1024.9 1025.3 0.0
22/08:30pm 3.2 0.4 1.9 91 0.5 SW 6 7 3 4 1024.7 1025.1 0.0
22/08:00pm 3.6 0.8 2.1 90 0.6 SW 6 7 3 4 1024.8 1025.2 0.0
22/07:30pm 4.2 1.9 2.6 89 0.7 SW 4 6 2 3 1024.7 1025.1 0.0
22/07:00pm 5.5 4.1 3.5 87 0.8 CALM 0 0 0 0 1024.8 1025.2 0.0
22/06:30pm 6.2 4.9 3.9 85 1.0 CALM 0 0 0 0 1024.6 1025.0 0.0
22/06:00pm 8.2 6.9 4.2 76 1.8 CALM 0 0 0 0 1024.5 1024.9 0.0
22/05:30pm 10.1 9.0 4.9 70 2.4 CALM 0 0 0 0 1024.3 1024.7 0.0

Other Formats:

Comma delimited format used in spreadsheet applications
http://www.bom.gov.au/fwo/IDN60801/IDN60801.95709.axf

JavaScript Object Notation format (JSON) in row-major order
http://www.bom.gov.au/fwo/IDN60801/IDN60801.95709.json